Osg Courageous — WDF7122 — position and weather

sailwx.info

Track history (hours):
 
Tides and Currents Weather Stations Pressure Air Temp Water Temp Dewpoint Dewpoint Depression Visibility Wind Speed Wind Dir Waves Ship Positions

Osg Courageous

Owner: OSG Ship Management, Inc, Tampa, FL. More information available from US FCC via Universal Licensing System and Coast Guard Vessel Documentation Center.

Last reported at 2017-Jul-22 03:22 UTC. Time now 2017-Jul-23 14:38 UTC.
Position N 32°41' W 079°38'.

Length 187 m; draft 11 m.

Type: Tanker. MMSI: 367481310.

Date/timePositionNaut miles runAvg speedWind from/ knotsBaromVisibWave heightAir tempDewpointWater temp
2017-Jul-22 03:22N 32°41' W 079°38'0 0.0
2017-Jul-22 02:46N 32°41' W 079°38'0 0.0
2017-Jul-22 02:28N 32°41' W 079°38'0 0.0
2017-Jul-22 01:58N 32°41' W 079°38'  
2017-Jul-18 04:19N 27°04' W 079°60'413.5
2017-Jul-18 04:00N 26°59' W 079°60'713.5
2017-Jul-18 03:30N 26°53' W 079°59'1812.8
2017-Jul-18 02:08N 26°35' W 079°59'212.2
2017-Jul-18 02:00N 26°33' W 079°59'612.1
2017-Jul-18 01:30N 26°28' W 079°59'612.0
2017-Jul-18 01:00N 26°22' W 079°59'612.0
2017-Jul-18 00:30N 26°16' W 079°59'612.1
2017-Jul-18 00:00N 26°10' W 079°59'612.1
2017-Jul-17 23:31N 26°04' W 079°60'612.2
2017-Jul-17 23:00N 25°57' W 079°60'612.1
2017-Jul-17 22:30N 25°51' W 079°60'612.0
2017-Jul-17 22:00N 25°45' W 079°60'612.2
2017-Jul-17 21:30N 25°39' W 079°60'612.4
2017-Jul-17 21:00N 25°33' W 079°60'612.5
2017-Jul-17 20:30N 25°27' W 079°60'612.3
2017-Jul-17 20:00N 25°21' W 080°01'712.6
2017-Jul-17 19:28N 25°15' W 080°04'  
Track history (hours):
 
Tides and Currents Weather Stations Pressure Air Temp Water Temp Dewpoint Dewpoint Depression Visibility Wind Speed Wind Dir Waves Ship Positions

Osg Courageous

Owner: OSG Ship Management, Inc, Tampa, FL. More information available from US FCC via Universal Licensing System and Coast Guard Vessel Documentation Center.

Last reported at 2017-Jul-22 03:22 UTC. Time now 2017-Jul-23 14:38 UTC.
Position N 32°41' W 079°38'.

Length 187 m; draft 11 m.

Type: Tanker. MMSI: 367481310.

Date/timePositionNaut miles runAvg speedWind from/ knotsBaromVisibWave heightAir tempDewpointWater temp
2017-Jul-22 03:22N 32°41' W 079°38'0 0.0
2017-Jul-22 02:46N 32°41' W 079°38'0 0.0
2017-Jul-22 02:28N 32°41' W 079°38'0 0.0
2017-Jul-22 01:58N 32°41' W 079°38'  
2017-Jul-18 04:19N 27°04' W 079°60'413.5
2017-Jul-18 04:00N 26°59' W 079°60'713.5
2017-Jul-18 03:30N 26°53' W 079°59'1812.8
2017-Jul-18 02:08N 26°35' W 079°59'212.2
2017-Jul-18 02:00N 26°33' W 079°59'612.1
2017-Jul-18 01:30N 26°28' W 079°59'612.0
2017-Jul-18 01:00N 26°22' W 079°59'612.0
2017-Jul-18 00:30N 26°16' W 079°59'612.1
2017-Jul-18 00:00N 26°10' W 079°59'612.1
2017-Jul-17 23:31N 26°04' W 079°60'612.2
2017-Jul-17 23:00N 25°57' W 079°60'612.1
2017-Jul-17 22:30N 25°51' W 079°60'612.0
2017-Jul-17 22:00N 25°45' W 079°60'612.2
2017-Jul-17 21:30N 25°39' W 079°60'612.4
2017-Jul-17 21:00N 25°33' W 079°60'612.5
2017-Jul-17 20:30N 25°27' W 079°60'612.3
2017-Jul-17 20:00N 25°21' W 080°01'712.6
2017-Jul-17 19:28N 25°15' W 080°04'  

Dump ship's entire track history